Fitchburg, Massachusetts
Current Conditions -  °F | °C
As of 12:52 PM on Thursday 29 Jan 2015 (Local Time) from KFIT Reporting Station
Clear Clear  
Wind Chill: 33°   Ceiling: Unl
Heat Index: 33°   Visibility: 10mi
Dew Point:   Wind: 0mph
Humidity: 24%   Direction: NA
Pressure: 30.22"   Gusts: NA
Location:  42.58°N, 71.79°W
Report Text: KFIT 291752Z AUTO 00000KT 10SM CLR 01/M18 A3022 RMK AO2 SLP241 T00061178 10006 21233 58026
Loading
Personal Weather Stations






























Interactive Weather Map New forecast layout! Learn more

10-Day Weather Forecast

Advertisements
Track Severe Weather on mobile